Airfield :
LOGIN :

Register | Disclaimer

   EN    FR    IT 

 










Legend :    VFR   Marginal VFR   IFR   Intensive IFR   Very Intensive IFR
Visi :
Ceiling :
>= 8 km
>= 3000ft
5 to 8 km
1000 to 3000 ft
1500m to 5 km
500 to 1000 ft
800 to 1500m
200 to 500 ft
< 800m
< 200 ft
Symbols :   Thunderstorms  Fog  Heavy snow  Heavy precipitations  Wind > 20 kt
SIGMETs :     Misc.  Thunderstorms  Icing  Turbulence  Mountain Waves  Volcanic Ashes







- Airport Elevation : 1674 ft
- IATA code : BRN


LSZB - Bern Belp

CURRENT METAR :
  • 301420Z VRB02KT CAVOK 20/08 Q1024 NOSIG

EXPIRED METARs :
  • 301350Z VRB03KT CAVOK 20/07 Q1024 NOSIG
  • 301320Z 29004KT CAVOK 19/05 Q1024 NOSIG
  • 301250Z 34004KT CAVOK 20/08 Q1025 NOSIG
  • 301220Z VRB02KT CAVOK 19/06 Q1025 NOSIG
  • 301150Z 31005KT 220V360 CAVOK 18/07 Q1025 NOSIG

TAF TAF LSZB
Valid from the 30 at 12:00 until the 30 at 21:00 UTC


301125Z 3012/3021 VRB03KT CAVOK
ATIS : +41 22 417 40 76
No reported NOTAMs for that airfield.



MET'MAP, your aeronautical weather chart ! - Copyright ORBIFLY December 2007 - Disclaimer

ORBIFLY MET'MAP TEAM :

Programming & Development : Alexandra Zaïnal
Concept & Development : Baudouin d'Aumeries
Co-Development & Prog : Marc-Olivier Méhu
Technical & hardware support : Manuel Goepfert

Contact : metmap@orbifly.com




SOURCES & CREDITS :

   NOAA